Spences Bridge, Canada
Current Conditions -  °F | °C
As of 10:00 PM on Tuesday 21 Oct 2014 (Local Time) from CWLY Reporting Station
Light Rain Light Rain  
Wind Chill: 54°   Ceiling: 6500
Heat Index: 54°   Visibility: 9mi
Dew Point: 48°   Wind: 7mph
Humidity: 82%   Direction: 200°SSW
Pressure: 29.68"   Gusts: 17mph
Location:  50.42°N, 121.35°W
Report Text: CWLY 220500Z AUTO 20006G15KT 150V250 9SM -RA OVC065 12/09 A2968 RMK SLP054
Loading
Personal Weather Stations






























Interactive Weather Map
Tropical Storm Tracking
New forecast layout! Learn more

10-Day Weather Forecast

Advertisements
Track Severe Weather on mobile